Time;durP1;ratioP1;P1;durP2;ratioP2;P2;SDS_P1;SDS_P2;PMS_P1;PMS_P2;Temp;Humidity;BMP_temperature;BMP_pressure;BME280_temperature;BME280_humidity;BME280_pressure;Samples;Min_cycle;Max_cycle;Signal;HPM_P1;HPM_P2
2022/03/31 00:04:40;;;;;;;;;;;5.90;1.00;;;;;;10415158;28;84967;-46
2022/03/31 00:09:40;;;;;;;;;;;5.70;1.00;;;;;;10416899;28;84912;-47
2022/03/31 00:14:41;;;;;;;;;;;5.70;1.00;;;;;;10423299;28;86019;-45
2022/03/31 00:19:41;;;;;;;;;;;5.70;1.00;;;;;;10437253;28;84934;-46
2022/03/31 00:24:42;;;;;;;;;;;5.60;1.00;;;;;;10453139;27;84852;-45
2022/03/31 00:29:42;;;;;;;;;;;5.60;1.00;;;;;;10429659;27;84187;-46
2022/03/31 00:34:43;;;;;;;;;;;5.60;1.00;;;;;;10440438;28;84188;-45
2022/03/31 00:39:44;;;;;;;;;;;5.60;1.00;;;;;;10437594;28;84190;-47
2022/03/31 00:44:45;;;;;;;;;;;5.60;1.00;;;;;;10421403;28;84951;-45
2022/03/31 00:49:46;;;;;;;;;;;5.60;1.00;;;;;;10416083;28;86292;-45
2022/03/31 00:54:46;;;;;;;;;;;5.60;1.00;;;;;;10421534;28;84810;-44
2022/03/31 00:59:47;;;;;;;;;;;5.60;1.00;;;;;;10435310;28;84974;-46
2022/03/31 01:04:47;;;;;;;;;;;5.50;1.00;;;;;;10431017;27;84926;-44
2022/03/31 01:09:48;;;;;;;;;;;5.40;1.00;;;;;;10370773;22;86890;-50
2022/03/31 01:15:08;;;;;;;;;;;5.40;1.00;;;;;;10346656;28;84446;-53
2022/03/31 01:20:10;;;;;;;;;;;5.40;1.00;;;;;;10307738;28;84225;-49
2022/03/31 01:25:11;;;;;;;;;;;5.40;1.00;;;;;;10312063;28;84849;-51
2022/03/31 01:30:13;;;;;;;;;;;5.30;1.00;;;;;;10293985;28;87027;-51
2022/03/31 01:35:14;;;;;;;;;;;5.30;1.00;;;;;;10313967;28;84131;-52
2022/03/31 01:40:15;;;;;;;;;;;5.20;1.00;;;;;;10316497;28;85029;-52
2022/03/31 01:45:17;;;;;;;;;;;5.30;1.00;;;;;;10307284;28;84709;-50
2022/03/31 01:50:18;;;;;;;;;;;5.40;1.00;;;;;;10312503;28;84146;-54
2022/03/31 01:55:18;;;;;;;;;;;5.40;1.00;;;;;;10312733;28;85103;-45
2022/03/31 02:00:19;;;;;;;;;;;5.30;1.00;;;;;;10311674;28;84839;-54
2022/03/31 02:05:20;;;;;;;;;;;5.30;1.00;;;;;;10337884;28;84925;-46
2022/03/31 02:10:21;;;;;;;;;;;5.20;1.00;;;;;;10307869;28;85027;-54
2022/03/31 02:15:21;;;;;;;;;;;5.20;1.00;;;;;;10306952;28;84579;-55
2022/03/31 02:20:23;;;;;;;;;;;5.20;1.00;;;;;;10312910;28;85247;-49
2022/03/31 02:25:23;;;;;;;;;;;5.20;1.00;;;;;;10309886;28;84430;-50
2022/03/31 02:30:24;;;;;;;;;;;5.30;1.00;;;;;;10292592;28;84782;-53
2022/03/31 02:35:25;;;;;;;;;;;5.30;1.00;;;;;;10311740;28;84514;-53
2022/03/31 02:40:26;;;;;;;;;;;5.20;1.00;;;;;;10310403;28;84587;-48
2022/03/31 02:45:26;;;;;;;;;;;5.10;1.00;;;;;;10339357;28;87087;-52
2022/03/31 02:50:27;;;;;;;;;;;5.10;1.00;;;;;;10313825;28;84165;-54
2022/03/31 02:55:30;;;;;;;;;;;5.00;1.00;;;;;;10306276;28;84873;-48
2022/03/31 03:00:32;;;;;;;;;;;5.10;1.00;;;;;;10315237;28;84758;-53
2022/03/31 03:05:34;;;;;;;;;;;5.00;1.00;;;;;;10302863;28;84864;-52
2022/03/31 03:10:35;;;;;;;;;;;5.00;1.00;;;;;;10328034;28;84732;-54
2022/03/31 03:15:35;;;;;;;;;;;5.00;1.00;;;;;;10314791;28;84888;-50
2022/03/31 03:20:36;;;;;;;;;;;4.90;1.00;;;;;;10318491;28;85117;-52
2022/03/31 03:25:37;;;;;;;;;;;4.90;1.00;;;;;;10301288;28;85797;-55
2022/03/31 03:30:37;;;;;;;;;;;5.00;1.00;;;;;;10311793;28;84083;-50
2022/03/31 03:35:38;;;;;;;;;;;5.00;1.00;;;;;;10332671;28;84164;-47
2022/03/31 03:40:38;;;;;;;;;;;5.10;1.00;;;;;;10304781;28;85398;-46
2022/03/31 03:45:39;;;;;;;;;;;5.10;1.00;;;;;;10328285;28;84929;-47
2022/03/31 03:50:39;;;;;;;;;;;5.10;1.00;;;;;;10312905;28;83994;-46
2022/03/31 03:55:40;;;;;;;;;;;5.10;1.00;;;;;;10313816;28;84936;-47
2022/03/31 04:00:41;;;;;;;;;;;5.20;1.00;;;;;;10286356;28;84267;-49
2022/03/31 04:05:41;;;;;;;;;;;5.20;1.00;;;;;;10302544;28;84026;-47
2022/03/31 04:10:42;;;;;;;;;;;5.20;1.00;;;;;;10307734;28;84861;-49
2022/03/31 04:15:42;;;;;;;;;;;5.30;1.00;;;;;;10317654;28;96284;-49
2022/03/31 04:20:43;;;;;;;;;;;5.30;1.00;;;;;;10318689;28;85082;-49
2022/03/31 04:25:44;;;;;;;;;;;5.20;1.00;;;;;;10313711;28;86881;-50
2022/03/31 04:30:44;;;;;;;;;;;5.20;1.00;;;;;;10315809;28;84914;-47
2022/03/31 04:35:45;;;;;;;;;;;5.20;1.00;;;;;;10315500;28;84318;-51
2022/03/31 04:40:45;;;;;;;;;;;5.30;1.00;;;;;;10320173;28;84281;-49
2022/03/31 04:45:46;;;;;;;;;;;5.40;1.00;;;;;;10324033;28;85618;-48
2022/03/31 04:50:46;;;;;;;;;;;5.30;8.90;;;;;;10322184;28;85019;-48
2022/03/31 04:55:47;;;;;;;;;;;5.30;1.00;;;;;;10320982;28;85273;-46
2022/03/31 05:00:47;;;;;;;;;;;5.40;33.30;;;;;;10325290;28;84969;-52
2022/03/31 05:05:48;;;;;;;;;;;5.40;44.80;;;;;;10321526;28;84022;-46
2022/03/31 05:10:49;;;;;;;;;;;5.50;59.40;;;;;;10310979;28;84265;-49
2022/03/31 05:15:49;;;;;;;;;;;5.50;73.60;;;;;;10308303;28;85789;-49
2022/03/31 05:20:50;;;;;;;;;;;5.50;99.90;;;;;;10310210;28;83998;-46
2022/03/31 05:25:51;;;;;;;;;;;5.50;99.90;;;;;;10326803;28;86343;-51
2022/03/31 05:30:51;;;;;;;;;;;5.50;99.90;;;;;;10330367;28;85913;-51
2022/03/31 05:35:52;;;;;;;;;;;5.50;91.20;;;;;;10319937;28;84970;-50
2022/03/31 05:40:52;;;;;;;;;;;5.60;87.90;;;;;;10321959;28;84802;-47
2022/03/31 05:45:53;;;;;;;;;;;5.60;99.90;;;;;;10306668;28;84134;-49
2022/03/31 05:50:54;;;;;;;;;;;5.50;99.90;;;;;;10308705;28;84195;-47
2022/03/31 05:55:54;;;;;;;;;;;5.60;99.90;;;;;;10324115;28;85831;-46
2022/03/31 06:00:55;;;;;;;;;;;5.50;99.90;;;;;;10328746;28;84984;-48
2022/03/31 06:05:55;;;;;;;;;;;5.50;99.90;;;;;;10328154;28;84995;-46
2022/03/31 06:10:56;;;;;;;;;;;5.50;99.90;;;;;;10325408;28;84083;-48
2022/03/31 06:15:56;;;;;;;;;;;5.60;99.90;;;;;;10326422;28;84963;-46
2022/03/31 06:20:57;;;;;;;;;;;5.60;99.90;;;;;;10337692;28;86059;-46
2022/03/31 06:25:58;;;;;;;;;;;5.60;99.90;;;;;;10297846;28;85776;-55
2022/03/31 06:30:58;;;;;;;;;;;5.70;99.90;;;;;;10317265;28;84559;-51
2022/03/31 06:35:59;;;;;;;;;;;5.70;99.90;;;;;;10329109;28;84785;-47
2022/03/31 06:41:14;;;;;;;;;;;5.80;99.90;;;;;;10327890;28;84536;-49
2022/03/31 06:46:16;;;;;;;;;;;5.90;99.90;;;;;;10327883;28;84080;-49
2022/03/31 06:51:16;;;;;;;;;;;6.00;99.90;;;;;;10328302;28;84790;-55
2022/03/31 06:56:18;;;;;;;;;;;5.90;99.90;;;;;;10327379;28;84346;-53
2022/03/31 07:01:18;;;;;;;;;;;6.00;99.90;;;;;;10327947;28;84046;-50
2022/03/31 07:06:20;;;;;;;;;;;6.10;99.90;;;;;;10354113;22;85292;-55
2022/03/31 07:11:21;;;;;;;;;;;6.10;99.90;;;;;;10462485;27;84615;-55
2022/03/31 07:16:21;;;;;;;;;;;6.10;99.90;;;;;;10447751;27;86980;-59
2022/03/31 07:21:23;;;;;;;;;;;6.10;99.90;;;;;;10436551;28;84869;-56
2022/03/31 07:26:24;;;;;;;;;;;6.00;99.90;;;;;;10436682;28;84842;-58
2022/03/31 07:31:28;;;;;;;;;;;6.10;99.90;;;;;;10451675;28;84984;-58
2022/03/31 07:36:28;;;;;;;;;;;6.00;99.90;;;;;;10432458;27;85489;-61
2022/03/31 07:41:29;;;;;;;;;;;6.20;99.90;;;;;;10446507;28;84960;-56
2022/03/31 07:46:32;;;;;;;;;;;6.40;99.90;;;;;;10427196;28;85811;-54
2022/03/31 07:51:33;;;;;;;;;;;6.30;99.90;;;;;;10408582;28;84058;-55
2022/03/31 07:56:33;;;;;;;;;;;6.50;99.90;;;;;;10406236;28;84923;-55
2022/03/31 08:01:34;;;;;;;;;;;6.70;99.90;;;;;;10438011;28;84998;-53
2022/03/31 08:06:35;;;;;;;;;;;6.80;12.70;;;;;;10418473;28;84475;-52
2022/03/31 08:11:35;;;;;;;;;;;6.90;1.00;;;;;;10386549;28;84142;-50
2022/03/31 08:16:36;;;;;;;;;;;7.20;1.00;;;;;;10391324;28;84224;-51
2022/03/31 08:21:36;;;;;;;;;;;7.20;1.00;;;;;;10441934;28;86253;-52
2022/03/31 08:26:37;;;;;;;;;;;7.30;1.00;;;;;;10455085;27;87012;-49
2022/03/31 08:31:38;;;;;;;;;;;7.50;1.00;;;;;;10454426;28;84735;-50
2022/03/31 08:36:39;;;;;;;;;;;7.50;1.00;;;;;;10455486;27;84893;-51
2022/03/31 08:41:40;;;;;;;;;;;7.50;1.00;;;;;;10456975;28;90234;-50
2022/03/31 08:46:41;;;;;;;;;;;7.50;1.00;;;;;;10455587;27;84930;-50
2022/03/31 08:51:45;;;;;;;;;;;7.70;1.00;;;;;;10456183;28;84358;-49
2022/03/31 08:56:45;;;;;;;;;;;7.80;1.00;;;;;;10455302;27;84233;-50
2022/03/31 09:01:46;;;;;;;;;;;7.60;1.00;;;;;;10438398;28;84788;-50
2022/03/31 09:06:47;;;;;;;;;;;7.70;1.00;;;;;;10454094;28;84978;-49
2022/03/31 09:11:49;;;;;;;;;;;7.30;1.00;;;;;;10437833;28;86907;-48
2022/03/31 09:16:50;;;;;;;;;;;7.30;1.00;;;;;;10419867;28;85862;-50
2022/03/31 09:21:54;;;;;;;;;;;7.50;1.00;;;;;;10455413;28;84401;-50
2022/03/31 09:26:56;;;;;;;;;;;7.70;1.00;;;;;;10453981;27;84893;-49
2022/03/31 09:32:10;;;;;;;;;;;7.90;1.00;;;;;;10435570;28;84711;-50
2022/03/31 09:37:11;;;;;;;;;;;7.90;1.00;;;;;;10453552;27;84839;-48
2022/03/31 09:42:12;;;;;;;;;;;7.80;1.00;;;;;;10453967;28;85674;-50
2022/03/31 09:47:13;;;;;;;;;;;7.60;1.00;;;;;;10453552;27;84134;-49
2022/03/31 09:52:13;;;;;;;;;;;7.60;1.00;;;;;;10453513;28;84941;-49
2022/03/31 09:57:14;;;;;;;;;;;7.70;1.00;;;;;;10452694;28;84771;-49
2022/03/31 10:02:15;;;;;;;;;;;7.80;1.00;;;;;;10435511;28;84911;-50
2022/03/31 10:07:15;;;;;;;;;;;7.80;1.00;;;;;;10451828;28;85052;-50
2022/03/31 10:12:16;;;;;;;;;;;7.90;1.00;;;;;;10453049;28;84118;-50
2022/03/31 10:17:17;;;;;;;;;;;8.00;1.00;;;;;;10452355;28;84103;-51
2022/03/31 10:27:40;;;;;;;;;;;8.20;99.90;;;;;;10451586;27;84718;-49
2022/03/31 10:32:53;;;;;;;;;;;8.10;99.90;;;;;;10451041;28;84182;-50
2022/03/31 10:37:54;;;;;;;;;;;8.20;99.90;;;;;;10450475;27;84148;-48
2022/03/31 10:42:55;;;;;;;;;;;8.20;99.90;;;;;;10452794;28;84847;-51
2022/03/31 10:47:57;;;;;;;;;;;8.10;99.90;;;;;;10452314;27;84682;-53
2022/03/31 10:52:59;;;;;;;;;;;8.10;99.90;;;;;;10453100;28;84077;-49
2022/03/31 10:57:59;;;;;;;;;;;8.00;99.90;;;;;;10451795;28;84063;-51
2022/03/31 11:03:00;;;;;;;;;;;8.10;99.90;;;;;;10452608;28;86343;-48
2022/03/31 11:08:01;;;;;;;;;;;8.00;99.90;;;;;;10450762;28;84691;-50
2022/03/31 11:13:03;;;;;;;;;;;7.90;99.90;;;;;;10451704;28;84885;-52
2022/03/31 11:18:03;;;;;;;;;;;8.10;99.90;;;;;;10450942;28;84135;-49
2022/03/31 11:23:06;;;;;;;;;;;8.30;99.90;;;;;;10451555;28;84098;-52
2022/03/31 11:28:11;;;;;;;;;;;8.40;99.90;;;;;;10450954;28;84044;-50
2022/03/31 11:33:14;;;;;;;;;;;8.50;99.90;;;;;;10450314;28;84483;-50
2022/03/31 11:38:17;;;;;;;;;;;8.60;99.90;;;;;;10450505;28;83987;-50
2022/03/31 11:43:19;;;;;;;;;;;8.30;99.90;;;;;;10451167;28;84831;-50
2022/03/31 11:48:21;;;;;;;;;;;8.30;99.90;;;;;;10432845;27;85785;-52
2022/03/31 11:53:26;;;;;;;;;;;8.40;99.90;;;;;;10458585;28;85086;-52
2022/03/31 11:58:30;;;;;;;;;;;8.20;99.90;;;;;;10457367;27;84860;-50
2022/03/31 12:03:37;;;;;;;;;;;8.20;99.90;;;;;;10458290;28;84075;-51
2022/03/31 12:08:38;;;;;;;;;;;8.20;99.90;;;;;;10457522;27;84176;-49
2022/03/31 12:13:46;;;;;;;;;;;8.10;99.90;;;;;;10458547;28;84153;-52
2022/03/31 12:18:54;;;;;;;;;;;8.20;99.90;;;;;;10457665;27;83965;-53
2022/03/31 12:24:01;;;;;;;;;;;8.40;99.90;;;;;;10459625;28;84020;-50
2022/03/31 12:29:02;;;;;;;;;;;8.40;99.90;;;;;;10456147;27;84230;-50
2022/03/31 12:34:03;;;;;;;;;;;8.40;99.90;;;;;;10459597;28;84856;-53
2022/03/31 12:39:05;;;;;;;;;;;8.60;99.90;;;;;;10440757;28;84101;-49
2022/03/31 12:44:05;;;;;;;;;;;8.50;99.90;;;;;;10457217;28;84868;-51
2022/03/31 12:49:08;;;;;;;;;;;8.50;99.90;;;;;;10456831;27;84066;-49
2022/03/31 12:54:23;;;;;;;;;;;8.50;99.90;;;;;;10457095;28;84040;-51
2022/03/31 12:59:26;;;;;;;;;;;8.30;51.70;;;;;;10455202;28;84880;-49
2022/03/31 13:04:27;;;;;;;;;;;8.20;99.90;;;;;;10456328;28;84047;-49
2022/03/31 13:09:28;;;;;;;;;;;8.10;99.90;;;;;;10417130;22;84704;-47
2022/03/31 13:14:30;;;;;;;;;;;8.10;99.90;;;;;;10373839;28;84061;-46
2022/03/31 13:19:34;;;;;;;;;;;8.30;99.90;;;;;;10373230;28;84400;-45
2022/03/31 13:24:35;;;;;;;;;;;8.40;99.90;;;;;;10373561;28;84113;-46
2022/03/31 13:29:35;;;;;;;;;;;8.30;99.90;;;;;;10372185;28;84049;-51
2022/03/31 13:34:39;;;;;;;;;;;8.20;99.90;;;;;;10338920;28;84838;-47
2022/03/31 13:39:39;;;;;;;;;;;8.00;99.90;;;;;;10371587;28;84077;-47
2022/03/31 13:44:40;;;;;;;;;;;8.00;99.90;;;;;;10373680;28;88958;-46
2022/03/31 13:49:41;;;;;;;;;;;8.20;99.90;;;;;;10372383;28;85123;-50
2022/03/31 13:54:41;;;;;;;;;;;8.30;99.90;;;;;;10372613;28;84972;-47
2022/03/31 14:05:02;;;;;;;;;;;8.10;1.00;;;;;;10354407;28;85445;-48
2022/03/31 14:10:04;;;;;;;;;;;8.00;1.00;;;;;;10370616;28;84133;-46
2022/03/31 14:15:04;;;;;;;;;;;8.00;1.00;;;;;;10338499;28;86855;-47
2022/03/31 14:20:05;;;;;;;;;;;7.80;1.00;;;;;;10371106;28;84038;-46
2022/03/31 14:25:06;;;;;;;;;;;7.80;1.00;;;;;;10372330;28;84201;-45
2022/03/31 14:30:09;;;;;;;;;;;7.80;1.00;;;;;;10367817;28;84254;-46
2022/03/31 14:35:09;;;;;;;;;;;7.60;1.00;;;;;;10370623;28;84838;-46
2022/03/31 14:40:10;;;;;;;;;;;7.70;1.00;;;;;;10369866;28;84107;-47
2022/03/31 14:45:11;;;;;;;;;;;7.80;1.00;;;;;;10352148;28;84167;-46
2022/03/31 14:50:11;;;;;;;;;;;7.60;1.00;;;;;;10369364;28;84333;-47
2022/03/31 14:55:12;;;;;;;;;;;7.40;1.00;;;;;;10351006;28;86616;-49
2022/03/31 15:00:13;;;;;;;;;;;7.30;1.00;;;;;;10369215;28;84835;-48
2022/03/31 15:05:14;;;;;;;;;;;7.40;1.00;;;;;;10370257;28;84284;-48
2022/03/31 15:15:34;;;;;;;;;;;7.30;1.00;;;;;;10360793;28;84829;-47
2022/03/31 15:20:34;;;;;;;;;;;7.30;1.00;;;;;;10359355;28;84086;-47
2022/03/31 15:25:35;;;;;;;;;;;7.40;1.00;;;;;;10367670;28;84473;-47
2022/03/31 15:30:35;;;;;;;;;;;7.30;1.00;;;;;;10363016;28;90649;-47
2022/03/31 15:35:36;;;;;;;;;;;6.90;1.00;;;;;;10367715;28;84818;-48
2022/03/31 15:40:37;;;;;;;;;;;6.80;1.00;;;;;;10367093;28;84075;-47
2022/03/31 15:45:38;;;;;;;;;;;6.80;1.00;;;;;;10347194;28;85102;-48
2022/03/31 15:50:40;;;;;;;;;;;6.70;1.00;;;;;;10367551;28;84176;-50
2022/03/31 15:55:41;;;;;;;;;;;6.70;1.00;;;;;;10344991;28;85873;-50
2022/03/31 16:00:44;;;;;;;;;;;6.80;1.00;;;;;;10362927;28;84742;-48
2022/03/31 16:05:45;;;;;;;;;;;6.80;1.00;;;;;;10341790;28;84792;-49
2022/03/31 16:10:45;;;;;;;;;;;6.90;1.00;;;;;;10327453;28;84467;-47
2022/03/31 16:15:46;;;;;;;;;;;6.70;1.00;;;;;;10309319;28;86965;-50
2022/03/31 16:20:47;;;;;;;;;;;6.70;1.00;;;;;;10329039;28;84872;-48
2022/03/31 16:25:48;;;;;;;;;;;6.60;1.00;;;;;;10329146;28;84351;-51
2022/03/31 16:30:52;;;;;;;;;;;6.50;1.00;;;;;;10329213;28;85150;-48
2022/03/31 16:35:53;;;;;;;;;;;6.50;1.00;;;;;;10325913;28;84245;-47
2022/03/31 16:40:54;;;;;;;;;;;6.50;99.90;;;;;;10344075;28;84736;-48
2022/03/31 16:45:54;;;;;;;;;;;6.50;99.90;;;;;;10354799;28;85907;-51
2022/03/31 16:50:55;;;;;;;;;;;6.40;99.90;;;;;;10373697;28;84258;-46
2022/03/31 16:55:56;;;;;;;;;;;6.40;99.90;;;;;;10355167;28;86408;-46
2022/03/31 17:00:56;;;;;;;;;;;6.20;99.90;;;;;;10373186;28;84094;-49
2022/03/31 17:05:57;;;;;;;;;;;6.00;1.00;;;;;;10372844;28;84857;-48
2022/03/31 17:10:57;;;;;;;;;;;5.90;1.00;;;;;;10373343;28;84187;-48
2022/03/31 17:15:58;;;;;;;;;;;5.70;99.90;;;;;;10375392;28;84830;-46
2022/03/31 17:20:58;;;;;;;;;;;5.60;99.90;;;;;;10374052;28;84711;-48
2022/03/31 17:25:59;;;;;;;;;;;5.70;99.90;;;;;;10365796;28;84332;-47
2022/03/31 17:31:00;;;;;;;;;;;5.70;99.90;;;;;;10338912;28;85932;-49
2022/03/31 17:36:01;;;;;;;;;;;5.40;1.00;;;;;;10374062;28;85121;-45
2022/03/31 17:41:02;;;;;;;;;;;5.20;1.00;;;;;;10374726;28;84331;-47
2022/03/31 17:46:03;;;;;;;;;;;5.20;1.00;;;;;;10373091;28;84927;-47
2022/03/31 17:51:03;;;;;;;;;;;4.90;1.00;;;;;;10345053;28;85916;-44
2022/03/31 17:56:04;;;;;;;;;;;4.80;1.00;;;;;;10371161;28;84110;-47
2022/03/31 18:01:04;;;;;;;;;;;4.80;1.00;;;;;;10370690;28;85516;-46
2022/03/31 18:06:05;;;;;;;;;;;4.70;1.00;;;;;;10372193;28;84234;-48
2022/03/31 18:11:06;;;;;;;;;;;4.70;1.00;;;;;;10347100;28;85311;-48
2022/03/31 18:16:10;;;;;;;;;;;4.60;1.00;;;;;;10352832;28;84228;-47
2022/03/31 18:21:11;;;;;;;;;;;4.50;1.00;;;;;;10350210;28;84801;-51
2022/03/31 18:26:11;;;;;;;;;;;4.30;1.00;;;;;;10312215;28;85927;-49
2022/03/31 18:36:32;;;;;;;;;;;4.00;1.00;;;;;;10333364;28;85082;-46
2022/03/31 18:41:32;;;;;;;;;;;4.00;72.70;;;;;;10337210;28;84316;-47
2022/03/31 18:46:34;;;;;;;;;;;4.00;99.90;;;;;;10338963;28;84222;-48
2022/03/31 18:51:36;;;;;;;;;;;3.80;99.90;;;;;;10342629;28;84152;-50
2022/03/31 18:56:36;;;;;;;;;;;3.80;99.90;;;;;;10334819;28;84464;-50
2022/03/31 19:01:37;;;;;;;;;;;3.70;99.90;;;;;;10337275;28;84974;-47
2022/03/31 19:11:57;;;;;;;;;;;3.50;99.90;;;;;;10293446;28;85372;-50
2022/03/31 19:16:58;;;;;;;;;;;3.50;99.90;;;;;;10288789;28;84156;-48
2022/03/31 19:22:00;;;;;;;;;;;3.40;99.90;;;;;;10306870;28;84296;-47
2022/03/31 19:27:01;;;;;;;;;;;3.30;99.90;;;;;;10284726;28;85923;-51
2022/03/31 19:32:03;;;;;;;;;;;3.30;99.90;;;;;;10289681;28;84172;-50
2022/03/31 19:37:03;;;;;;;;;;;3.40;99.90;;;;;;10286856;28;84347;-47
2022/03/31 19:42:04;;;;;;;;;;;3.30;99.90;;;;;;10292458;28;86687;-49
2022/03/31 19:47:05;;;;;;;;;;;3.30;99.90;;;;;;10303676;28;85262;-53
2022/03/31 19:52:06;;;;;;;;;;;3.20;99.90;;;;;;10325937;28;84975;-48
2022/03/31 19:57:06;;;;;;;;;;;3.20;99.90;;;;;;10302224;28;85294;-47
2022/03/31 20:02:07;;;;;;;;;;;3.10;99.90;;;;;;10325346;28;85372;-48
2022/03/31 20:07:08;;;;;;;;;;;3.10;99.90;;;;;;10323522;28;84257;-47
2022/03/31 20:12:09;;;;;;;;;;;3.00;99.90;;;;;;10331513;28;84103;-47
2022/03/31 20:17:09;;;;;;;;;;;3.10;99.90;;;;;;10329113;28;84454;-48
2022/03/31 20:22:11;;;;;;;;;;;3.00;99.90;;;;;;10333353;28;84391;-48
2022/03/31 20:27:12;;;;;;;;;;;2.90;99.90;;;;;;10328072;28;84936;-50
2022/03/31 20:32:13;;;;;;;;;;;2.90;99.90;;;;;;10333107;28;84716;-51
2022/03/31 20:37:15;;;;;;;;;;;2.90;99.90;;;;;;10317451;28;84995;-48
2022/03/31 20:42:16;;;;;;;;;;;2.80;99.90;;;;;;10306602;28;84114;-48
2022/03/31 20:47:16;;;;;;;;;;;2.70;99.90;;;;;;10317787;28;84245;-48
2022/03/31 20:52:17;;;;;;;;;;;2.60;99.90;;;;;;10313309;28;84719;-53
2022/03/31 20:57:17;;;;;;;;;;;2.50;99.90;;;;;;10315201;28;84981;-47
2022/03/31 21:02:18;;;;;;;;;;;2.50;99.90;;;;;;10313676;28;94061;-47
2022/03/31 21:07:18;;;;;;;;;;;2.40;99.90;;;;;;10321820;28;85076;-49
2022/03/31 21:12:19;;;;;;;;;;;2.40;99.90;;;;;;10318583;28;85348;-50
2022/03/31 21:17:19;;;;;;;;;;;2.40;99.90;;;;;;10335422;28;85243;-45
2022/03/31 21:22:20;;;;;;;;;;;2.30;99.90;;;;;;10319675;28;84173;-50
2022/03/31 21:27:20;;;;;;;;;;;2.30;99.90;;;;;;10308929;28;85899;-47
2022/03/31 21:32:21;;;;;;;;;;;2.20;99.90;;;;;;10292856;28;86879;-48
2022/03/31 21:37:21;;;;;;;;;;;2.10;99.90;;;;;;10328256;28;89096;-48
2022/03/31 21:42:23;;;;;;;;;;;2.20;99.90;;;;;;10321720;28;84497;-45
2022/03/31 21:47:24;;;;;;;;;;;2.20;99.90;;;;;;10304366;28;84142;-47
2022/03/31 21:52:24;;;;;;;;;;;2.00;99.90;;;;;;10337452;28;84923;-48
2022/03/31 21:57:25;;;;;;;;;;;2.00;99.90;;;;;;10313208;28;84273;-49
2022/03/31 22:02:27;;;;;;;;;;;2.00;99.90;;;;;;10310090;28;85912;-49
2022/03/31 22:07:27;;;;;;;;;;;1.90;99.90;;;;;;10324954;28;84735;-47
2022/03/31 22:12:28;;;;;;;;;;;1.90;99.90;;;;;;10319939;28;85067;-53
2022/03/31 22:17:30;;;;;;;;;;;1.90;99.90;;;;;;10303985;28;90269;-49
2022/03/31 22:22:32;;;;;;;;;;;1.80;99.90;;;;;;10304779;28;85056;-49
2022/03/31 22:27:33;;;;;;;;;;;1.70;99.90;;;;;;10302406;28;86028;-52
2022/03/31 22:32:35;;;;;;;;;;;1.70;99.90;;;;;;10312197;28;84217;-45
2022/03/31 22:37:35;;;;;;;;;;;1.70;99.90;;;;;;10323130;28;84752;-48
2022/03/31 22:42:37;;;;;;;;;;;1.70;99.90;;;;;;10310155;28;95125;-52
2022/03/31 22:47:37;;;;;;;;;;;1.60;99.90;;;;;;10329051;28;85325;-50
2022/03/31 22:52:38;;;;;;;;;;;1.70;99.90;;;;;;10331640;28;84024;-51
2022/03/31 22:57:39;;;;;;;;;;;1.60;99.90;;;;;;10332834;28;83997;-50
2022/03/31 23:02:39;;;;;;;;;;;1.60;99.90;;;;;;10328659;28;99981;-48
2022/03/31 23:07:40;;;;;;;;;;;1.60;99.90;;;;;;10326678;28;98354;-48
2022/03/31 23:12:41;;;;;;;;;;;1.50;99.90;;;;;;10327512;28;84823;-48
2022/03/31 23:17:41;;;;;;;;;;;1.60;99.90;;;;;;10326703;28;84927;-52
2022/03/31 23:22:42;;;;;;;;;;;1.50;99.90;;;;;;10327675;28;87208;-50
2022/03/31 23:27:42;;;;;;;;;;;1.60;99.90;;;;;;10326356;28;84961;-51
2022/03/31 23:32:43;;;;;;;;;;;1.60;99.90;;;;;;10327180;28;84976;-49
2022/03/31 23:37:43;;;;;;;;;;;1.60;99.90;;;;;;10326354;28;84768;-49
2022/03/31 23:42:44;;;;;;;;;;;1.50;99.90;;;;;;10325340;28;86054;-47
2022/03/31 23:47:44;;;;;;;;;;;1.50;99.90;;;;;;10326094;28;85282;-52
2022/03/31 23:52:46;;;;;;;;;;;1.60;99.90;;;;;;10327352;28;84093;-53
2022/03/31 23:57:46;;;;;;;;;;;1.60;99.90;;;;;;10326899;28;84748;-47
